createdAt,value
2022-11-08T00:14:59.363Z,12.5
2022-11-08T00:25:00.246Z,12.3
2022-11-08T00:35:01.042Z,12.2
2022-11-08T00:45:22.328Z,12.1
2022-11-08T00:55:21.105Z,11.9
2022-11-08T01:05:22.080Z,11.8
2022-11-08T01:15:22.883Z,11.7
2022-11-08T01:25:23.633Z,11.8
2022-11-08T01:35:23.742Z,12.1
2022-11-08T01:45:24.464Z,12.4
2022-11-08T02:05:26.242Z,12.5
2022-11-08T02:15:27.009Z,12.6
2022-11-08T02:25:27.398Z,12.6
2022-11-08T02:35:28.104Z,12.5
2022-11-08T02:45:28.624Z,12.3
2022-11-08T02:55:29.525Z,12.2
2022-11-08T03:05:29.730Z,11.9
2022-11-08T03:15:30.247Z,11.8
2022-11-08T03:25:31.320Z,11.6
2022-11-08T03:35:32.073Z,11.6
2022-11-08T03:45:32.448Z,11.6
2022-11-08T03:55:32.833Z,11.6
2022-11-08T04:05:33.326Z,11.8
2022-11-08T04:15:33.791Z,11.9
2022-11-08T04:25:35.187Z,11.9
2022-11-08T04:35:34.620Z,11.8
2022-11-08T04:45:34.843Z,11.5
2022-11-08T04:55:34.960Z,11.6
2022-11-08T05:35:36.715Z,11.7
2022-11-08T05:45:36.827Z,11.6
2022-11-08T05:55:37.202Z,11.6
2022-11-08T06:15:37.722Z,11.6
2022-11-08T06:25:37.869Z,11.7
2022-11-08T06:35:38.457Z,11.8
2022-11-08T06:45:38.838Z,11.9
2022-11-08T06:55:39.145Z,12
2022-11-08T07:05:39.789Z,12.2
2022-11-08T07:15:40.387Z,12.3
2022-11-08T07:25:41.215Z,12.5
2022-11-08T07:35:42.189Z,12.5
2022-11-08T07:45:42.665Z,13
2022-11-08T07:55:42.868Z,13.3
2022-11-08T08:05:43.110Z,13.5
2022-11-08T08:15:44.102Z,13.9
2022-11-08T08:35:45.788Z,14.8
2022-11-08T08:45:46.608Z,14.9
2022-11-08T08:55:47.183Z,14.9
2022-11-08T09:05:48.231Z,14.9
2022-11-08T09:15:49.303Z,15.1
2022-11-08T09:45:51.727Z,16
2022-11-08T10:15:53.381Z,15.9
2022-11-08T10:16:15.312Z,15.9
2022-11-08T10:25:59.325Z,15.8
2022-11-08T10:36:02.312Z,15.8
2022-11-08T11:06:01.418Z,15.9
2022-11-08T11:16:02.269Z,15.9
2022-11-08T11:26:03.248Z,16
2022-11-08T11:36:03.613Z,16.2
2022-11-08T11:46:04.373Z,16.6
2022-11-08T11:56:04.537Z,16.7
2022-11-08T12:06:05.357Z,16.7
2022-11-08T12:16:05.513Z,16.6
2022-11-08T12:46:06.739Z,16.5
2022-11-08T13:26:10.224Z,16.7
2022-11-08T13:36:10.356Z,16.6
2022-11-08T13:46:10.494Z,16.6
2022-11-08T13:56:11.538Z,16.5
2022-11-08T14:06:12.576Z,16.5
2022-11-08T14:36:14.817Z,16.3
2022-11-08T14:56:15.559Z,16.1
2022-11-08T15:26:18.173Z,16.1
2022-11-08T15:46:18.522Z,16
2022-11-08T15:56:19.557Z,15.9
2022-11-08T16:06:20.408Z,15.9
2022-11-08T16:16:20.601Z,15.9
2022-11-08T16:26:21.409Z,15.9
2022-11-08T16:36:21.673Z,15.8
2022-11-08T16:46:22.139Z,15.8
2022-11-08T16:56:22.913Z,15.7
2022-11-08T17:06:23.581Z,15.8
2022-11-08T17:16:24.250Z,15.7
2022-11-08T17:26:25.227Z,15.5
2022-11-08T17:36:25.410Z,15.4
2022-11-08T18:16:27.398Z,15.5
2022-11-08T18:26:27.983Z,15.5
2022-11-08T18:36:28.422Z,15.4
2022-11-08T18:56:29.577Z,15.5
2022-11-08T19:26:31.465Z,15.6
2022-11-08T19:46:32.522Z,15.7
2022-11-08T19:57:02.312Z,15.7
2022-11-08T20:06:33.662Z,15.7
2022-11-08T20:16:34.060Z,15.7
2022-11-08T20:36:35.611Z,15.7
2022-11-08T20:56:36.470Z,15.6
2022-11-08T21:16:59.678Z,15.7
2022-11-08T21:36:39.306Z,15.9
2022-11-08T22:36:45.516Z,15.6
2022-11-08T22:46:44.058Z,15.7
2022-11-08T22:56:44.381Z,15.7
2022-11-08T23:16:44.942Z,15.6
2022-11-08T23:26:45.486Z,15.6
2022-11-08T23:36:46.424Z,15.6
2022-11-08T23:56:47.490Z,15.6
